SCC98NM EGPO-EGPF
Flight info
| Callsign | SCC98NM |
|---|---|
| Flight time | 0h 45m |
| Altitude | 19000 |
| Route | STN DCT ORSUM DCT LOMON DCT GOW |
| Aircraft | AT76/L-SDFGIRY/S |
Departure
| Time | 2026-04-27 22:39 |
|---|---|
| Airport | Stornoway Airport (EGPO) |
Arrival
| Time | 2026-04-27 23:25 |
|---|---|
| Airport | Glasgow Airport (EGPF) |
| Time | Latitude | Longitude | Altitude | Speed | Heading |
|---|---|---|---|---|---|
| 2026-04-27 22:19 | 58.21439 | -6.32052 | 33 ft | 0 kts | 236° |
| 2026-04-27 22:34 | 58.21439 | -6.32055 | 32 ft | 0 kts | 247° |
| 2026-04-27 22:34 | 58.21443 | -6.32079 | 31 ft | 3 kts | 297° |
| 2026-04-27 22:34 | 58.21466 | -6.32137 | 27 ft | 9 kts | 289° |
| 2026-04-27 22:34 | 58.21464 | -6.32256 | 26 ft | 9 kts | 262° |
| 2026-04-27 22:35 | 58.21442 | -6.32405 | 22 ft | 16 kts | 236° |
| 2026-04-27 22:35 | 58.21368 | -6.32563 | 18 ft | 13 kts | 211° |
| 2026-04-27 22:35 | 58.21337 | -6.32584 | 19 ft | 5 kts | 197° |
| 2026-04-27 22:35 | 58.21323 | -6.32592 | 18 ft | 0 kts | 194° |
| 2026-04-27 22:36 | 58.21322 | -6.32591 | 18 ft | 1 kts | 183° |
| 2026-04-27 22:36 | 58.21255 | -6.32571 | 17 ft | 18 kts | 175° |
| 2026-04-27 22:36 | 58.21118 | -6.32550 | 17 ft | 19 kts | 175° |
| 2026-04-27 22:36 | 58.20995 | -6.32538 | 16 ft | 17 kts | 188° |
| 2026-04-27 22:37 | 58.20937 | -6.32664 | 22 ft | 10 kts | 264° |
| 2026-04-27 22:37 | 58.20928 | -6.32790 | 25 ft | 10 kts | 262° |
| 2026-04-27 22:37 | 58.20919 | -6.32917 | 26 ft | 10 kts | 262° |
| 2026-04-27 22:37 | 58.20871 | -6.32976 | 26 ft | 11 kts | 178° |
| 2026-04-27 22:38 | 58.20768 | -6.32955 | 25 ft | 18 kts | 173° |
| 2026-04-27 22:38 | 58.20640 | -6.32949 | 20 ft | 19 kts | 185° |
| 2026-04-27 22:38 | 58.20581 | -6.32917 | 19 ft | 1 kts | 62° |
| 2026-04-27 22:38 | 58.20591 | -6.32921 | 20 ft | 0 kts | 355° |
| 2026-04-27 22:39 | 58.20592 | -6.32921 | 23 ft | 2 kts | 355° |
| 2026-04-27 22:39 | 58.20863 | -6.32972 | 26 ft | 82 kts | 354° |
| 2026-04-27 22:39 | 58.21653 | -6.33134 | 126 ft | 134 kts | 352° |
| 2026-04-27 22:39 | 58.22573 | -6.33408 | 849 ft | 137 kts | 348° |
| 2026-04-27 22:40 | 58.23560 | -6.33694 | 1549 ft | 147 kts | 348° |
| 2026-04-27 22:40 | 58.24591 | -6.33757 | 1976 ft | 159 kts | 7° |
| 2026-04-27 22:40 | 58.25575 | -6.32489 | 2137 ft | 186 kts | 57° |
| 2026-04-27 22:40 | 58.25830 | -6.30158 | 2723 ft | 184 kts | 102° |
| 2026-04-27 22:41 | 58.25183 | -6.28147 | 3290 ft | 179 kts | 141° |
| 2026-04-27 22:41 | 58.24310 | -6.26426 | 3818 ft | 183 kts | 132° |
| 2026-04-27 22:41 | 58.23507 | -6.24538 | 4355 ft | 185 kts | 131° |
| 2026-04-27 22:41 | 58.22696 | -6.22632 | 4910 ft | 186 kts | 132° |
| 2026-04-27 22:42 | 58.21858 | -6.20754 | 5455 ft | 187 kts | 133° |
| 2026-04-27 22:42 | 58.20998 | -6.18879 | 5984 ft | 189 kts | 133° |
| 2026-04-27 22:42 | 58.19975 | -6.17404 | 6429 ft | 186 kts | 162° |
| 2026-04-27 22:42 | 58.18757 | -6.16547 | 6917 ft | 189 kts | 162° |
| 2026-04-27 22:43 | 58.17519 | -6.15665 | 7395 ft | 191 kts | 162° |
| 2026-04-27 22:43 | 58.16292 | -6.14763 | 7852 ft | 192 kts | 161° |
| 2026-04-27 22:43 | 58.15027 | -6.13804 | 8344 ft | 195 kts | 161° |
| 2026-04-27 22:43 | 58.13779 | -6.12847 | 8798 ft | 197 kts | 160° |
| 2026-04-27 22:44 | 58.12506 | -6.11853 | 9254 ft | 199 kts | 160° |
| 2026-04-27 22:44 | 58.11225 | -6.10844 | 9717 ft | 201 kts | 160° |
| 2026-04-27 22:44 | 58.09931 | -6.09823 | 10168 ft | 203 kts | 159° |
| 2026-04-27 22:44 | 58.08625 | -6.08789 | 10575 ft | 205 kts | 159° |
| 2026-04-27 22:45 | 58.07307 | -6.07742 | 10973 ft | 207 kts | 160° |
| 2026-04-27 22:45 | 58.05975 | -6.06686 | 11364 ft | 208 kts | 160° |
| 2026-04-27 22:45 | 58.04629 | -6.05617 | 11755 ft | 210 kts | 160° |
| 2026-04-27 22:45 | 58.03278 | -6.04523 | 12137 ft | 212 kts | 160° |
| 2026-04-27 22:46 | 58.02377 | -6.03794 | 12389 ft | 214 kts | 160° |
| 2026-04-27 22:46 | 58.01005 | -6.02681 | 12772 ft | 215 kts | 160° |
| 2026-04-27 22:46 | 57.99616 | -6.01585 | 13138 ft | 217 kts | 160° |
| 2026-04-27 22:46 | 57.98214 | -6.00483 | 13505 ft | 219 kts | 161° |
| 2026-04-27 22:47 | 57.96800 | -5.99374 | 13872 ft | 221 kts | 161° |
| 2026-04-27 22:47 | 57.95368 | -5.98252 | 14244 ft | 223 kts | 161° |
| 2026-04-27 22:47 | 57.93931 | -5.97126 | 14566 ft | 224 kts | 161° |
| 2026-04-27 22:47 | 57.92489 | -5.95999 | 14873 ft | 226 kts | 162° |
| 2026-04-27 22:48 | 57.91035 | -5.94863 | 15178 ft | 227 kts | 162° |
| 2026-04-27 22:48 | 57.89571 | -5.93719 | 15498 ft | 228 kts | 162° |
| 2026-04-27 22:48 | 57.88101 | -5.92573 | 15797 ft | 230 kts | 162° |
| 2026-04-27 22:48 | 57.86593 | -5.91404 | 15902 ft | 240 kts | 162° |
| 2026-04-27 22:49 | 57.85021 | -5.90180 | 15956 ft | 250 kts | 161° |
| 2026-04-27 22:49 | 57.83389 | -5.88902 | 15981 ft | 258 kts | 161° |
| 2026-04-27 22:49 | 57.81703 | -5.87591 | 15991 ft | 265 kts | 161° |
| 2026-04-27 22:49 | 57.79986 | -5.86251 | 15995 ft | 270 kts | 161° |
| 2026-04-27 22:50 | 57.78236 | -5.84893 | 15997 ft | 274 kts | 161° |
| 2026-04-27 22:50 | 57.76469 | -5.83521 | 15999 ft | 276 kts | 161° |
| 2026-04-27 22:50 | 57.74689 | -5.82144 | 15995 ft | 278 kts | 161° |
| 2026-04-27 22:50 | 57.72898 | -5.80754 | 15998 ft | 279 kts | 161° |
| 2026-04-27 22:51 | 57.71098 | -5.79362 | 15994 ft | 280 kts | 161° |
| 2026-04-27 22:51 | 57.69293 | -5.77968 | 15999 ft | 281 kts | 161° |
| 2026-04-27 22:51 | 57.67484 | -5.76576 | 15998 ft | 281 kts | 161° |
| 2026-04-27 22:51 | 57.65672 | -5.75181 | 15994 ft | 282 kts | 161° |
| 2026-04-27 22:52 | 57.63857 | -5.73782 | 15997 ft | 282 kts | 162° |
| 2026-04-27 22:52 | 57.62044 | -5.72388 | 16003 ft | 282 kts | 162° |
| 2026-04-27 22:52 | 57.60227 | -5.70991 | 16001 ft | 282 kts | 162° |
| 2026-04-27 22:52 | 57.58408 | -5.69596 | 15997 ft | 282 kts | 162° |
| 2026-04-27 22:53 | 57.56595 | -5.68208 | 15994 ft | 282 kts | 162° |
| 2026-04-27 22:53 | 57.54776 | -5.66816 | 16000 ft | 282 kts | 162° |
| 2026-04-27 22:53 | 57.52963 | -5.65431 | 15995 ft | 282 kts | 162° |
| 2026-04-27 22:53 | 57.51145 | -5.64042 | 16005 ft | 282 kts | 162° |
| 2026-04-27 22:54 | 57.49327 | -5.62652 | 15994 ft | 282 kts | 162° |
| 2026-04-27 22:54 | 57.47508 | -5.61266 | 15995 ft | 282 kts | 162° |
| 2026-04-27 22:54 | 57.45697 | -5.59890 | 15994 ft | 281 kts | 162° |
| 2026-04-27 22:54 | 57.43886 | -5.58512 | 15996 ft | 281 kts | 162° |
| 2026-04-27 22:55 | 57.42075 | -5.57134 | 16003 ft | 281 kts | 162° |
| 2026-04-27 22:55 | 57.40266 | -5.55761 | 15994 ft | 281 kts | 162° |
| 2026-04-27 22:55 | 57.38450 | -5.54387 | 15991 ft | 281 kts | 162° |
| 2026-04-27 22:55 | 57.36649 | -5.53020 | 15987 ft | 280 kts | 162° |
| 2026-04-27 22:56 | 57.34839 | -5.51649 | 16000 ft | 280 kts | 162° |
| 2026-04-27 22:56 | 57.33055 | -5.50304 | 15998 ft | 281 kts | 162° |
| 2026-04-27 22:56 | 57.31247 | -5.48940 | 15991 ft | 281 kts | 162° |
| 2026-04-27 22:56 | 57.29437 | -5.47576 | 16000 ft | 281 kts | 162° |
| 2026-04-27 22:57 | 57.27607 | -5.46197 | 15997 ft | 281 kts | 162° |
| 2026-04-27 22:57 | 57.25822 | -5.44850 | 16000 ft | 281 kts | 162° |
| 2026-04-27 22:57 | 57.24012 | -5.43491 | 15997 ft | 281 kts | 162° |
| 2026-04-27 22:57 | 57.22205 | -5.42134 | 15987 ft | 281 kts | 162° |
| 2026-04-27 22:58 | 57.20393 | -5.40775 | 15988 ft | 281 kts | 162° |
| 2026-04-27 22:58 | 57.18584 | -5.39421 | 16005 ft | 281 kts | 163° |
| 2026-04-27 22:58 | 57.16764 | -5.38061 | 16005 ft | 284 kts | 163° |
| 2026-04-27 22:58 | 57.14935 | -5.36691 | 15989 ft | 284 kts | 162° |
| 2026-04-27 22:59 | 57.13108 | -5.35323 | 15976 ft | 283 kts | 163° |
| 2026-04-27 22:59 | 57.11291 | -5.33973 | 15998 ft | 281 kts | 163° |
| 2026-04-27 22:59 | 57.09478 | -5.32616 | 15980 ft | 281 kts | 163° |
| 2026-04-27 22:59 | 57.07673 | -5.31271 | 15980 ft | 279 kts | 163° |
| 2026-04-27 23:00 | 57.04086 | -5.28597 | 16001 ft | 278 kts | 163° |
| 2026-04-27 23:00 | 57.02282 | -5.27266 | 15986 ft | 279 kts | 163° |
| 2026-04-27 23:00 | 57.00478 | -5.25931 | 15992 ft | 279 kts | 163° |
| 2026-04-27 23:01 | 56.98689 | -5.24605 | 15979 ft | 279 kts | 163° |
| 2026-04-27 23:01 | 56.96886 | -5.23268 | 15986 ft | 278 kts | 163° |
| 2026-04-27 23:01 | 56.95097 | -5.21947 | 15990 ft | 277 kts | 163° |
| 2026-04-27 23:01 | 56.93304 | -5.20622 | 15980 ft | 277 kts | 163° |
| 2026-04-27 23:02 | 56.91519 | -5.19308 | 15986 ft | 277 kts | 163° |
| 2026-04-27 23:02 | 56.89734 | -5.17991 | 15984 ft | 277 kts | 163° |
| 2026-04-27 23:02 | 56.87945 | -5.16674 | 15982 ft | 276 kts | 163° |
| 2026-04-27 23:02 | 56.86186 | -5.15379 | 15981 ft | 276 kts | 163° |
| 2026-04-27 23:03 | 56.84384 | -5.14059 | 15983 ft | 276 kts | 163° |
| 2026-04-27 23:03 | 56.82598 | -5.12747 | 15991 ft | 276 kts | 163° |
| 2026-04-27 23:03 | 56.80815 | -5.11439 | 15982 ft | 277 kts | 163° |
| 2026-04-27 23:03 | 56.79027 | -5.10130 | 15986 ft | 277 kts | 163° |
| 2026-04-27 23:04 | 56.77239 | -5.08820 | 15979 ft | 277 kts | 163° |
| 2026-04-27 23:04 | 56.75456 | -5.07526 | 15994 ft | 275 kts | 163° |
| 2026-04-27 23:04 | 56.73667 | -5.06284 | 15978 ft | 275 kts | 165° |
| 2026-04-27 23:04 | 56.71897 | -5.05048 | 15976 ft | 276 kts | 163° |
| 2026-04-27 23:05 | 56.70119 | -5.03742 | 15976 ft | 276 kts | 163° |
| 2026-04-27 23:05 | 56.68341 | -5.02438 | 15991 ft | 276 kts | 163° |
| 2026-04-27 23:05 | 56.66556 | -5.01138 | 15975 ft | 276 kts | 163° |
| 2026-04-27 23:05 | 56.64772 | -4.99840 | 15981 ft | 276 kts | 163° |
| 2026-04-27 23:06 | 56.62985 | -4.98550 | 15962 ft | 276 kts | 163° |
| 2026-04-27 23:06 | 56.61204 | -4.97261 | 15974 ft | 276 kts | 163° |
| 2026-04-27 23:06 | 56.59424 | -4.95966 | 15976 ft | 275 kts | 163° |
| 2026-04-27 23:06 | 56.57649 | -4.94680 | 15984 ft | 275 kts | 163° |
| 2026-04-27 23:07 | 56.55867 | -4.93396 | 15967 ft | 275 kts | 163° |
| 2026-04-27 23:07 | 56.54086 | -4.92111 | 15971 ft | 274 kts | 163° |
| 2026-04-27 23:07 | 56.52313 | -4.90834 | 15987 ft | 275 kts | 163° |
| 2026-04-27 23:07 | 56.50532 | -4.89551 | 15980 ft | 275 kts | 162° |
| 2026-04-27 23:08 | 56.48751 | -4.88269 | 15977 ft | 276 kts | 162° |
| 2026-04-27 23:08 | 56.46967 | -4.86988 | 15971 ft | 276 kts | 162° |
| 2026-04-27 23:08 | 56.45190 | -4.85704 | 15967 ft | 275 kts | 162° |
| 2026-04-27 23:08 | 56.43408 | -4.84423 | 15982 ft | 275 kts | 162° |
| 2026-04-27 23:09 | 56.41627 | -4.83152 | 15983 ft | 276 kts | 162° |
| 2026-04-27 23:09 | 56.39841 | -4.81878 | 15983 ft | 277 kts | 162° |
| 2026-04-27 23:09 | 56.38049 | -4.80593 | 15975 ft | 277 kts | 162° |
| 2026-04-27 23:09 | 56.36252 | -4.79309 | 15971 ft | 278 kts | 162° |
| 2026-04-27 23:10 | 56.34461 | -4.78031 | 15968 ft | 277 kts | 162° |
| 2026-04-27 23:10 | 56.32669 | -4.76756 | 15971 ft | 277 kts | 162° |
| 2026-04-27 23:10 | 56.30884 | -4.75486 | 15972 ft | 274 kts | 163° |
| 2026-04-27 23:10 | 56.29048 | -4.74735 | 15867 ft | 273 kts | 176° |
| 2026-04-27 23:11 | 56.27183 | -4.74305 | 15508 ft | 267 kts | 178° |
| 2026-04-27 23:11 | 56.25361 | -4.73948 | 15162 ft | 261 kts | 178° |
| 2026-04-27 23:11 | 56.23547 | -4.73617 | 14825 ft | 267 kts | 178° |
| 2026-04-27 23:11 | 56.21655 | -4.73287 | 14496 ft | 279 kts | 178° |
| 2026-04-27 23:12 | 56.19684 | -4.72972 | 14146 ft | 288 kts | 178° |
| 2026-04-27 23:12 | 56.17663 | -4.72670 | 13775 ft | 294 kts | 179° |
| 2026-04-27 23:12 | 56.15606 | -4.72377 | 13401 ft | 298 kts | 179° |
| 2026-04-27 23:12 | 56.13529 | -4.72087 | 13024 ft | 301 kts | 179° |
| 2026-04-27 23:13 | 56.11457 | -4.71798 | 12839 ft | 297 kts | 179° |
| 2026-04-27 23:13 | 56.09408 | -4.71516 | 12634 ft | 293 kts | 179° |
| 2026-04-27 23:13 | 56.07430 | -4.71727 | 12405 ft | 282 kts | 195° |
| 2026-04-27 23:13 | 56.05518 | -4.72549 | 12211 ft | 282 kts | 197° |
| 2026-04-27 23:14 | 56.03615 | -4.73443 | 12021 ft | 282 kts | 198° |
| 2026-04-27 23:14 | 56.01748 | -4.74358 | 11824 ft | 282 kts | 198° |
| 2026-04-27 23:14 | 55.99856 | -4.75297 | 11636 ft | 282 kts | 199° |
| 2026-04-27 23:14 | 55.97964 | -4.76243 | 11447 ft | 282 kts | 199° |
| 2026-04-27 23:15 | 55.96079 | -4.77189 | 11263 ft | 282 kts | 199° |
| 2026-04-27 23:15 | 55.94186 | -4.78142 | 11066 ft | 282 kts | 199° |
| 2026-04-27 23:15 | 55.92292 | -4.79098 | 10896 ft | 282 kts | 199° |
| 2026-04-27 23:15 | 55.90399 | -4.80052 | 10715 ft | 282 kts | 199° |
| 2026-04-27 23:16 | 55.88517 | -4.81002 | 10544 ft | 281 kts | 199° |
| 2026-04-27 23:16 | 55.86640 | -4.81948 | 10367 ft | 281 kts | 199° |
| 2026-04-27 23:16 | 55.84758 | -4.82902 | 10175 ft | 281 kts | 199° |
| 2026-04-27 23:16 | 55.82889 | -4.83851 | 9985 ft | 275 kts | 199° |
| 2026-04-27 23:17 | 55.81132 | -4.84750 | 9654 ft | 255 kts | 199° |
| 2026-04-27 23:17 | 55.79454 | -4.85601 | 9123 ft | 248 kts | 199° |
| 2026-04-27 23:17 | 55.77811 | -4.86432 | 8600 ft | 242 kts | 199° |
| 2026-04-27 23:17 | 55.76209 | -4.87239 | 8073 ft | 238 kts | 199° |
| 2026-04-27 23:18 | 55.74626 | -4.87977 | 7575 ft | 231 kts | 191° |
| 2026-04-27 23:18 | 55.73051 | -4.87510 | 7062 ft | 235 kts | 154° |
| 2026-04-27 23:18 | 55.71894 | -4.85488 | 6560 ft | 237 kts | 118° |
| 2026-04-27 23:18 | 55.71570 | -4.82689 | 6046 ft | 232 kts | 85° |
| 2026-04-27 23:19 | 55.71748 | -4.79862 | 5533 ft | 230 kts | 81° |
| 2026-04-27 23:19 | 55.71979 | -4.77059 | 5019 ft | 229 kts | 80° |
| 2026-04-27 23:19 | 55.72235 | -4.74273 | 4492 ft | 228 kts | 79° |
| 2026-04-27 23:19 | 55.72525 | -4.71562 | 4179 ft | 215 kts | 71° |
| 2026-04-27 23:20 | 55.73259 | -4.69362 | 3863 ft | 204 kts | 52° |
| 2026-04-27 23:20 | 55.74145 | -4.67430 | 3558 ft | 200 kts | 45° |
| 2026-04-27 23:20 | 55.75119 | -4.65693 | 3245 ft | 197 kts | 42° |
| 2026-04-27 23:20 | 55.76087 | -4.64021 | 2922 ft | 191 kts | 43° |
| 2026-04-27 23:21 | 55.76993 | -4.62378 | 2620 ft | 178 kts | 44° |
| 2026-04-27 23:21 | 55.77783 | -4.60872 | 2311 ft | 157 kts | 45° |
| 2026-04-27 23:21 | 55.78494 | -4.59516 | 1982 ft | 145 kts | 44° |
| 2026-04-27 23:21 | 55.79170 | -4.58263 | 1662 ft | 132 kts | 44° |
| 2026-04-27 23:22 | 55.79771 | -4.57145 | 1502 ft | 123 kts | 43° |
| 2026-04-27 23:22 | 55.80386 | -4.56082 | 1400 ft | 121 kts | 43° |
| 2026-04-27 23:22 | 55.80972 | -4.55036 | 1439 ft | 121 kts | 44° |
| 2026-04-27 23:22 | 55.81543 | -4.53993 | 1417 ft | 116 kts | 45° |
| 2026-04-27 23:23 | 55.82077 | -4.52957 | 1339 ft | 113 kts | 46° |
| 2026-04-27 23:23 | 55.82636 | -4.51928 | 1184 ft | 115 kts | 46° |
| 2026-04-27 23:23 | 55.83177 | -4.50895 | 1027 ft | 115 kts | 47° |
| 2026-04-27 23:23 | 55.83706 | -4.49869 | 856 ft | 113 kts | 48° |
| 2026-04-27 23:24 | 55.84249 | -4.48843 | 658 ft | 114 kts | 46° |
| 2026-04-27 23:24 | 55.84796 | -4.47842 | 497 ft | 112 kts | 46° |
| 2026-04-27 23:24 | 55.85340 | -4.46848 | 340 ft | 112 kts | 46° |
| 2026-04-27 23:24 | 55.85866 | -4.45828 | 192 ft | 112 kts | 47° |
| 2026-04-27 23:25 | 55.86386 | -4.44849 | 50 ft | 106 kts | 46° |
| 2026-04-27 23:25 | 55.86840 | -4.43985 | 26 ft | 61 kts | 45° |
| 2026-04-27 23:25 | 55.86968 | -4.43747 | 25 ft | 18 kts | 47° |
| 2026-04-27 23:25 | 55.87078 | -4.43539 | 27 ft | 31 kts | 45° |
| 2026-04-27 23:26 | 55.87205 | -4.43305 | 27 ft | 19 kts | 46° |
| 2026-04-27 23:26 | 55.87349 | -4.43037 | 27 ft | 41 kts | 46° |
| 2026-04-27 23:26 | 55.87530 | -4.42701 | 25 ft | 27 kts | 46° |
| 2026-04-27 23:26 | 55.87638 | -4.42496 | 25 ft | 18 kts | 47° |
| 2026-04-27 23:27 | 55.87714 | -4.42359 | 25 ft | 14 kts | 45° |
| 2026-04-27 23:27 | 55.87743 | -4.42216 | 25 ft | 12 kts | 118° |
| 2026-04-27 23:27 | 55.87662 | -4.42154 | 25 ft | 16 kts | 185° |
| 2026-04-27 23:27 | 55.87561 | -4.42274 | 25 ft | 21 kts | 226° |
| 2026-04-27 23:28 | 55.87457 | -4.42467 | 25 ft | 22 kts | 226° |
| 2026-04-27 23:28 | 55.87342 | -4.42621 | 27 ft | 20 kts | 201° |
| 2026-04-27 23:28 | 55.87197 | -4.42724 | 25 ft | 23 kts | 201° |
| 2026-04-27 23:28 | 55.87097 | -4.42791 | 25 ft | 23 kts | 200° |
| 2026-04-27 23:29 | 55.86911 | -4.42928 | 25 ft | 21 kts | 207° |
| 2026-04-27 23:29 | 55.86774 | -4.42987 | 25 ft | 21 kts | 168° |
| 2026-04-27 23:29 | 55.86649 | -4.42921 | 25 ft | 17 kts | 165° |
| 2026-04-27 23:29 | 55.86575 | -4.42890 | 25 ft | 3 kts | 144° |
| 2026-04-27 23:30 | 55.86570 | -4.42852 | 25 ft | 3 kts | 84° |
| 2026-04-27 23:30 | 55.86574 | -4.42829 | 25 ft | 1 kts | 73° |
| 2026-04-27 23:30 | 55.86575 | -4.42822 | 25 ft | 0 kts | 73° |